Time;durP1;ratioP1;P1;durP2;ratioP2;P2;SDS_P1;SDS_P2;PMS_P1;PMS_P2;Temp;Humidity;BMP_temperature;BMP_pressure;BME280_temperature;BME280_humidity;BME280_pressure;Samples;Min_cycle;Max_cycle;Signal;HPM_P1;HPM_P2
2021/08/10 00:01:04;;;;;;;8.03;5.20;;;;;;;13.88;79.35;101689.97;3563629;40;20246;-80
2021/08/10 00:03:29;;;;;;;8.00;5.57;;;;;;;13.89;79.30;101690.81;3564016;40;20227;-80
2021/08/10 00:05:54;;;;;;;9.93;7.07;;;;;;;13.86;78.89;101689.06;3564301;40;20242;-79
2021/08/10 00:08:21;;;;;;;11.63;7.63;;;;;;;14.14;79.45;101675.84;3564083;40;20242;-79
2021/08/10 00:10:47;;;;;;;9.47;6.57;;;;;;;14.08;79.36;101674.91;3564612;40;20269;-80
2021/08/10 00:13:15;;;;;;;7.83;5.10;;;;;;;13.96;79.09;101677.22;3566743;40;20238;-80
2021/08/10 00:15:40;;;;;;;10.37;6.73;;;;;;;13.82;79.14;101679.56;3566135;40;20234;-80
2021/08/10 00:18:07;;;;;;;7.07;4.17;;;;;;;13.77;79.30;101673.41;3569746;40;20246;-80
2021/08/10 00:20:32;;;;;;;8.40;6.20;;;;;;;13.87;79.36;101672.78;3583107;40;20250;-81
2021/08/10 00:23:24;;;;;;;9.77;6.80;;;;;;;13.91;78.87;101671.97;3583379;40;20241;-80
2021/08/10 00:25:49;;;;;;;9.40;6.43;;;;;;;14.10;79.32;101662.91;3574650;40;20273;-80
2021/08/10 00:28:15;;;;;;;10.33;6.53;;;;;;;14.16;79.37;101657.84;3583517;40;20250;-80
2021/08/10 00:30:42;;;;;;;10.07;6.63;;;;;;;14.11;78.83;101655.22;3574276;40;20686;-80
2021/08/10 00:33:08;;;;;;;11.67;7.10;;;;;;;14.00;79.21;101659.28;3575980;40;20234;-81
2021/08/10 00:35:34;;;;;;;11.53;6.00;;;;;;;13.97;79.21;101660.94;3577283;40;20251;-82
2021/08/10 00:37:59;;;;;;;11.13;6.43;;;;;;;14.17;78.86;101650.16;3584794;40;20497;-81
2021/08/10 00:40:25;;;;;;;16.00;7.37;;;;;;;14.28;78.38;101655.53;3577644;40;20239;-81
2021/08/10 00:42:50;;;;;;;9.03;6.97;;;;;;;14.14;79.03;101655.25;3586084;40;20250;-82
2021/08/10 00:45:15;;;;;;;9.77;6.73;;;;;;;14.11;79.04;101651.75;3579301;40;20241;-81
2021/08/10 00:47:41;;;;;;;11.90;6.90;;;;;;;14.29;78.71;101658.16;3579002;40;20668;-81
2021/08/10 00:50:06;;;;;;;8.67;6.23;;;;;;;14.14;78.68;101656.97;3578792;40;20233;-81
2021/08/10 00:52:32;;;;;;;9.17;5.77;;;;;;;13.98;79.00;101667.81;3578727;40;20596;-81
2021/08/10 00:54:57;;;;;;;10.20;6.13;;;;;;;13.99;79.24;101665.28;3578430;40;20230;-81
2021/08/10 00:57:22;;;;;;;10.37;6.57;;;;;;;14.00;78.88;101667.00;3587073;40;20225;-81
2021/08/10 00:59:48;;;;;;;10.20;6.63;;;;;;;14.09;78.11;101663.75;3578864;40;20527;-81
2021/08/10 01:02:13;;;;;;;7.83;5.50;;;;;;;13.93;78.48;101667.75;3578904;40;20238;-81
2021/08/10 01:04:38;;;;;;;9.23;6.37;;;;;;;13.88;79.27;101664.22;3578968;40;20225;-81
2021/08/10 01:07:30;;;;;;;7.37;5.10;;;;;;;13.79;78.93;101665.72;3578155;40;20625;-81
2021/08/10 01:10:20;;;;;;;8.30;5.30;;;;;;;13.69;78.99;101663.81;3577914;40;20255;-81
2021/08/10 01:13:04;;;;;;;8.90;6.40;;;;;;;13.48;79.69;101668.56;3586565;40;20230;-81
2021/08/10 01:15:35;;;;;;;6.87;4.60;;;;;;;13.37;79.41;101665.75;3577408;40;20238;-81
2021/08/10 01:18:19;;;;;;;8.87;5.23;;;;;;;13.29;79.90;101671.53;3573049;40;20239;-80
2021/08/10 01:21:12;;;;;;;7.67;5.63;;;;;;;13.23;79.55;101664.59;3566820;40;20541;-81
2021/08/10 01:23:37;;;;;;;7.57;5.27;;;;;;;13.23;79.74;101668.84;3565899;40;20503;-80
2021/08/10 01:26:25;;;;;;;8.27;5.30;;;;;;;13.17;80.15;101672.13;3566975;40;20230;-81
2021/08/10 01:28:58;;;;;;;7.47;4.07;;;;;;;13.14;80.02;101666.94;3566005;40;20274;-79
2021/08/10 01:31:35;;;;;;;6.67;4.50;;;;;;;13.07;79.86;101666.78;3566675;40;20263;-80
2021/08/10 01:34:10;;;;;;;6.97;4.97;;;;;;;13.01;80.30;101670.06;3567136;40;20230;-81
2021/08/10 01:36:37;;;;;;;4.43;3.23;;;;;;;13.06;80.00;101670.16;3567091;40;20231;-81
2021/08/10 01:39:03;;;;;;;7.90;5.30;;;;;;;13.43;80.35;101668.44;3567171;40;20233;-80
2021/08/10 01:41:31;;;;;;;7.87;4.90;;;;;;;13.71;79.40;101664.75;3567627;40;20243;-80
2021/08/10 01:44:00;;;;;;;7.50;5.40;;;;;;;13.72;79.66;101663.91;3567109;40;20624;-81
2021/08/10 01:46:26;;;;;;;6.03;4.30;;;;;;;13.64;79.03;101656.03;3565734;40;20227;-79
2021/08/10 01:48:54;;;;;;;6.63;4.97;;;;;;;13.44;79.77;101667.59;3566503;40;20242;-80
2021/08/10 01:51:26;;;;;;;7.53;4.77;;;;;;;13.33;80.17;101656.22;3568467;40;20262;-81
2021/08/10 01:53:54;;;;;;;6.97;5.10;;;;;;;13.71;78.95;101655.28;3569623;40;20219;-82
2021/08/10 01:56:19;;;;;;;6.37;4.70;;;;;;;13.94;78.43;101661.75;3568707;40;20230;-81
2021/08/10 01:58:47;;;;;;;6.80;4.60;;;;;;;13.70;79.19;101655.25;3568555;40;20223;-81
2021/08/10 02:01:14;;;;;;;7.40;4.77;;;;;;;13.66;79.01;101653.44;3567825;40;20254;-81
2021/08/10 02:03:41;;;;;;;5.20;3.83;;;;;;;13.42;79.69;101664.13;3568939;40;20232;-82
2021/08/10 02:06:07;;;;;;;5.10;3.60;;;;;;;13.25;79.64;101669.75;3568722;40;20246;-80
2021/08/10 02:08:34;;;;;;;5.90;4.00;;;;;;;13.20;79.45;101659.34;3566027;40;20484;-82
2021/08/10 02:11:00;;;;;;;6.93;4.20;;;;;;;13.28;79.75;101660.41;3565858;40;20250;-81
2021/08/10 02:13:26;;;;;;;5.90;4.27;;;;;;;13.51;78.78;101663.44;3565174;40;20238;-79
2021/08/10 02:15:52;;;;;;;4.43;3.47;;;;;;;13.56;78.98;101664.41;3567527;40;20234;-79
2021/08/10 02:18:19;;;;;;;4.67;3.47;;;;;;;13.51;79.08;101663.44;3574341;40;20621;-80
2021/08/10 02:20:47;;;;;;;3.60;2.77;;;;;;;13.48;79.64;101666.81;3573577;40;20250;-80
2021/08/10 02:23:14;;;;;;;4.80;3.70;;;;;;;13.41;79.11;101670.13;3575038;40;20245;-80
2021/08/10 02:25:43;;;;;;;4.40;3.67;;;;;;;13.47;78.99;101671.94;3575430;40;20233;-80
2021/08/10 02:28:10;;;;;;;5.70;3.40;;;;;;;13.45;78.90;101666.75;3583148;40;20365;-80
2021/08/10 02:30:38;;;;;;;5.60;2.93;;;;;;;13.30;79.08;101673.31;3574848;40;20239;-80
2021/08/10 02:33:08;;;;;;;3.87;3.10;;;;;;;13.21;79.66;101673.94;3574299;40;20235;-80
2021/08/10 02:35:34;;;;;;;5.50;3.43;;;;;;;13.58;78.94;101667.91;3574572;40;20280;-80
2021/08/10 02:38:05;;;;;;;3.70;2.83;;;;;;;13.36;79.39;101669.16;3574466;40;20238;-80
2021/08/10 02:40:31;;;;;;;3.53;2.43;;;;;;;13.30;79.50;101652.72;3574850;40;20234;-80
2021/08/10 02:42:59;;;;;;;2.30;2.00;;;;;;;13.25;79.73;101654.34;3582988;40;20835;-81
2021/08/10 02:45:25;;;;;;;4.83;3.30;;;;;;;13.49;79.06;101660.84;3574681;40;20231;-81
2021/08/10 02:47:57;;;;;;;4.57;2.60;;;;;;;13.52;79.59;101653.19;3574505;40;20262;-81
2021/08/10 02:50:25;;;;;;;4.03;2.83;;;;;;;13.54;78.55;101656.66;3575577;40;20545;-80
2021/08/10 02:52:52;;;;;;;4.23;3.23;;;;;;;13.57;78.79;101650.69;3576342;40;20589;-80
2021/08/10 02:55:19;;;;;;;8.60;3.47;;;;;;;13.65;78.85;101656.88;3575093;40;20235;-81
2021/08/10 02:58:18;;;;;;;4.60;3.07;;;;;;;13.72;78.79;101649.28;3576536;40;20218;-81
2021/08/10 03:00:54;;;;;;;4.37;3.10;;;;;;;13.64;78.59;101647.41;3575831;40;20234;-81
2021/08/10 03:03:24;;;;;;;4.23;2.83;;;;;;;13.59;78.74;101647.34;3576600;40;20249;-81
2021/08/10 03:05:54;;;;;;;3.00;2.50;;;;;;;13.60;78.52;101645.63;3576286;40;20237;-81
2021/08/10 03:08:23;;;;;;;4.00;2.67;;;;;;;13.54;78.61;101651.50;3584498;40;20275;-81
2021/08/10 03:10:51;;;;;;;3.47;2.60;;;;;;;13.39;79.30;101640.91;3575026;40;20265;-80
2021/08/10 03:13:17;;;;;;;5.27;2.40;;;;;;;13.32;79.31;101644.22;3573732;40;20230;-80
2021/08/10 03:15:44;;;;;;;3.47;2.37;;;;;;;13.24;79.36;101642.28;3576811;40;20336;-80
2021/08/10 03:18:13;;;;;;;3.27;2.30;;;;;;;13.10;79.83;101652.28;3576058;40;20529;-80
2021/08/10 03:20:41;;;;;;;3.50;2.43;;;;;;;13.16;79.78;101654.97;3582375;40;20242;-81
2021/08/10 03:23:08;;;;;;;2.57;1.97;;;;;;;13.15;80.30;101654.94;3574459;40;20270;-80
2021/08/10 03:25:34;;;;;;;2.03;1.83;;;;;;;13.09;80.57;101659.97;3575598;40;20237;-80
2021/08/10 03:28:01;;;;;;;2.30;1.90;;;;;;;13.09;80.39;101662.53;3574644;40;20254;-80
2021/08/10 03:30:27;;;;;;;3.50;2.80;;;;;;;13.09;80.72;101658.28;3582484;40;20242;-81
2021/08/10 03:32:55;;;;;;;3.57;2.60;;;;;;;13.15;80.63;101660.97;3575540;40;20231;-80
2021/08/10 03:35:20;;;;;;;2.40;2.13;;;;;;;13.17;80.72;101655.88;3574421;40;20242;-80
2021/08/10 03:37:46;;;;;;;2.50;2.30;;;;;;;13.23;80.75;101656.88;3576252;40;20230;-80
2021/08/10 03:40:13;;;;;;;5.43;2.53;;;;;;;13.25;80.88;101644.91;3576170;40;20261;-80
2021/08/10 03:42:39;;;;;;;3.37;2.70;;;;;;;13.32;80.90;101644.22;3575163;40;20249;-81
2021/08/10 03:45:05;;;;;;;4.70;3.07;;;;;;;13.46;80.48;101640.22;3576811;40;20230;-81
2021/08/10 03:47:31;;;;;;;4.27;2.60;;;;;;;13.51;80.64;101643.75;3576262;40;20229;-81
2021/08/10 03:49:58;;;;;;;4.83;2.97;;;;;;;13.82;79.87;101642.63;3576383;40;20238;-81
2021/08/10 03:52:25;;;;;;;2.50;2.20;;;;;;;13.72;79.34;101641.56;3573534;40;20281;-81
2021/08/10 03:54:50;;;;;;;3.43;2.47;;;;;;;13.63;79.61;101640.53;3574525;40;20643;-80
2021/08/10 03:57:20;;;;;;;3.70;3.00;;;;;;;13.67;80.02;101624.31;3575602;40;20239;-81
2021/08/10 03:59:54;;;;;;;3.13;2.57;;;;;;;13.68;79.69;101629.47;3574629;40;20250;-81
2021/08/10 04:02:20;;;;;;;6.53;2.90;;;;;;;13.69;80.14;101631.25;3574937;40;20310;-81
2021/08/10 04:04:48;;;;;;;4.43;2.63;;;;;;;13.58;79.73;101629.28;3574625;40;20563;-80
2021/08/10 04:07:14;;;;;;;4.47;3.07;;;;;;;13.52;79.86;101630.03;3582201;40;20222;-81
2021/08/10 04:09:40;;;;;;;3.33;2.90;;;;;;;13.45;80.35;101641.03;3574779;40;20245;-80
2021/08/10 04:12:10;;;;;;;4.50;2.50;;;;;;;13.47;80.79;101644.50;3574364;40;20276;-80
2021/08/10 04:14:36;;;;;;;4.57;3.07;;;;;;;13.84;79.73;101644.41;3582324;40;20663;-80
2021/08/10 04:17:04;;;;;;;3.90;3.20;;;;;;;13.90;79.13;101646.22;3575903;40;20237;-80
2021/08/10 04:19:32;;;;;;;5.97;2.70;;;;;;;13.75;79.60;101654.53;3585562;40;20234;-80
2021/08/10 04:21:58;;;;;;;4.93;2.77;;;;;;;13.69;80.53;101656.97;3578451;40;20218;-80
2021/08/10 04:24:23;;;;;;;5.47;3.17;;;;;;;14.02;79.53;101661.88;3577619;40;20226;-80
2021/08/10 04:26:48;;;;;;;5.63;3.43;;;;;;;13.90;79.28;101659.09;3577891;40;20624;-80
2021/08/10 04:29:14;;;;;;;5.80;3.10;;;;;;;13.82;80.04;101660.66;3577045;40;20237;-80
2021/08/10 04:31:40;;;;;;;4.07;2.50;;;;;;;13.82;80.50;101661.53;3577685;40;20250;-80
2021/08/10 04:34:05;;;;;;;5.60;4.80;;;;;;;13.90;79.69;101659.94;3577643;40;20249;-80
2021/08/10 04:36:31;;;;;;;5.23;3.00;;;;;;;14.02;79.71;101664.47;3577276;40;20222;-80
2021/08/10 04:38:56;;;;;;;6.07;4.00;;;;;;;14.07;79.71;101662.84;3576386;40;20417;-80
2021/08/10 04:41:21;;;;;;;4.80;3.80;;;;;;;14.29;79.40;101652.13;3578998;40;20246;-81
2021/08/10 04:43:47;;;;;;;4.27;3.70;;;;;;;14.17;79.37;101652.72;3569901;40;20223;-79
2021/08/10 04:46:12;;;;;;;4.43;3.20;;;;;;;14.28;79.62;101652.97;3571211;40;20241;-81
2021/08/10 04:48:37;;;;;;;7.13;3.67;;;;;;;14.26;78.86;101667.50;3577816;40;20311;-80
2021/08/10 04:51:02;;;;;;;4.93;3.80;;;;;;;14.41;79.40;101660.06;3577834;40;20895;-81
2021/08/10 04:53:28;;;;;;;5.57;3.50;;;;;;;14.66;77.94;101652.75;3586079;40;20230;-80
2021/08/10 04:55:53;;;;;;;3.00;2.70;;;;;;;14.54;77.76;101657.72;3577998;40;20230;-81
2021/08/10 04:58:18;;;;;;;4.10;2.80;;;;;;;14.38;79.12;101657.44;3583926;40;20227;-80
2021/08/10 05:00:43;;;;;;;4.93;3.30;;;;;;;14.52;79.15;101649.09;3567704;40;20329;-80
2021/08/10 05:03:09;;;;;;;4.97;3.57;;;;;;;14.71;78.28;101647.66;3567201;40;20219;-81
2021/08/10 05:05:34;;;;;;;4.93;3.10;;;;;;;14.45;78.92;101649.81;3567834;40;20227;-80
2021/08/10 05:07:59;;;;;;;5.40;3.00;;;;;;;14.41;79.10;101648.03;3567931;40;20624;-80
2021/08/10 05:10:24;;;;;;;5.40;3.20;;;;;;;14.46;78.86;101641.25;3567847;40;20266;-80
2021/08/10 05:12:51;;;;;;;4.60;3.27;;;;;;;14.59;79.01;101650.91;3568131;40;20276;-81
2021/08/10 05:15:19;;;;;;;5.37;2.60;;;;;;;14.56;78.37;101647.44;3575605;40;20306;-80
2021/08/10 05:17:44;;;;;;;3.83;3.10;;;;;;;14.51;78.83;101649.06;3567723;40;20704;-80
2021/08/10 05:20:10;;;;;;;3.07;2.80;;;;;;;14.63;78.66;101652.69;3567573;40;20282;-81
2021/08/10 05:22:36;;;;;;;3.37;2.70;;;;;;;14.59;78.86;101656.06;3568099;40;20629;-80
2021/08/10 05:25:05;;;;;;;4.23;3.10;;;;;;;14.58;79.32;101649.19;3568667;40;20309;-80
2021/08/10 05:27:30;;;;;;;3.93;3.37;;;;;;;14.55;80.07;101651.69;3568586;40;20621;-81
2021/08/10 05:29:56;;;;;;;5.50;3.50;;;;;;;14.74;78.71;101650.28;3566192;40;20243;-81
2021/08/10 05:32:21;;;;;;;5.13;3.30;;;;;;;14.68;78.81;101647.63;3566640;40;20266;-81
2021/08/10 05:34:46;;;;;;;4.50;3.20;;;;;;;14.61;79.97;101646.66;3567628;40;20226;-81
2021/08/10 05:37:11;;;;;;;6.13;3.17;;;;;;;14.74;79.13;101656.31;3576009;40;20234;-80
2021/08/10 05:39:37;;;;;;;5.07;3.10;;;;;;;14.79;79.35;101656.38;3582314;40;20257;-81
2021/08/10 05:42:02;;;;;;;4.80;3.00;;;;;;;14.78;79.11;101652.94;3576023;40;20230;-80
2021/08/10 05:44:27;;;;;;;2.80;2.40;;;;;;;14.70;79.13;101654.56;3576909;40;20238;-80
2021/08/10 05:46:54;;;;;;;4.37;3.07;;;;;;;14.72;79.39;101652.84;3575460;40;20226;-81
2021/08/10 05:49:20;;;;;;;4.03;2.70;;;;;;;14.66;79.64;101663.06;3582613;40;20242;-81
2021/08/10 05:51:45;;;;;;;4.20;2.77;;;;;;;14.98;78.70;101660.97;3575506;40;20226;-80
2021/08/10 05:54:13;;;;;;;3.47;3.10;;;;;;;14.92;79.05;101664.31;3575865;40;20222;-81
2021/08/10 05:56:39;;;;;;;4.63;3.40;;;;;;;15.15;78.77;101662.94;3574829;40;20255;-81
2021/08/10 05:59:04;;;;;;;2.97;2.67;;;;;;;14.98;78.91;101659.28;3574374;40;20223;-81
2021/08/10 06:01:29;;;;;;;4.73;2.93;;;;;;;14.95;79.53;101656.63;3574962;40;20250;-80
2021/08/10 06:03:54;;;;;;;4.87;3.57;;;;;;;15.01;79.69;101646.41;3574749;40;20572;-80
2021/08/10 06:06:20;;;;;;;4.30;2.83;;;;;;;14.95;79.80;101641.16;3574653;40;20527;-81
2021/08/10 06:08:45;;;;;;;4.97;3.90;;;;;;;15.21;79.13;101629.50;3575066;40;20227;-81
2021/08/10 06:11:10;;;;;;;5.37;4.27;;;;;;;15.21;79.54;101626.91;3574797;40;20257;-80
2021/08/10 06:13:36;;;;;;;4.50;3.70;;;;;;;15.37;79.11;101634.03;3574880;40;20601;-79
2021/08/10 06:16:02;;;;;;;5.17;3.60;;;;;;;15.43;78.16;101625.50;3574462;40;20235;-81
2021/08/10 06:18:27;;;;;;;3.93;3.30;;;;;;;15.51;77.88;101624.75;3576755;40;20605;-80
2021/08/10 06:20:52;;;;;;;3.60;2.70;;;;;;;15.43;78.22;101633.25;3583319;40;20258;-79
2021/08/10 06:23:17;;;;;;;4.00;3.50;;;;;;;15.86;76.91;101633.75;3576252;40;20230;-81
2021/08/10 06:25:43;;;;;;;7.23;3.50;;;;;;;15.84;76.75;101632.88;3576521;40;20251;-80
2021/08/10 06:28:08;;;;;;;4.80;3.57;;;;;;;15.83;76.73;101632.84;3576138;40;20226;-80
2021/08/10 06:30:33;;;;;;;4.80;4.07;;;;;;;15.78;77.10;101624.19;3576002;40;20277;-80
2021/08/10 06:32:59;;;;;;;3.47;2.50;;;;;;;15.52;78.24;101621.31;3575213;40;20626;-80
2021/08/10 06:35:24;;;;;;;5.37;3.30;;;;;;;15.55;78.31;101623.06;3571734;40;20317;-80
2021/08/10 06:37:49;;;;;;;6.10;3.60;;;;;;;15.75;77.00;101621.59;3565583;40;20231;-80
2021/08/10 06:40:14;;;;;;;5.83;3.47;;;;;;;15.88;76.34;101626.88;3564584;40;20235;-79
2021/08/10 06:42:40;;;;;;;5.37;3.20;;;;;;;15.79;77.51;101619.03;3564354;40;20715;-79
2021/08/10 06:45:05;;;;;;;5.20;3.47;;;;;;;15.69;77.12;101612.03;3564318;40;20227;-80
2021/08/10 06:47:31;;;;;;;3.80;3.20;;;;;;;15.91;75.91;101620.88;3564861;40;20223;-80
2021/08/10 06:49:56;;;;;;;5.00;3.53;;;;;;;15.82;76.70;101616.50;3564372;40;20274;-80
2021/08/10 06:52:21;;;;;;;4.60;3.70;;;;;;;16.30;75.40;101621.28;3564233;40;20589;-80
2021/08/10 06:54:46;;;;;;;4.13;3.13;;;;;;;16.31;75.22;101616.09;3565117;40;20236;-80
2021/08/10 06:57:12;;;;;;;6.43;3.37;;;;;;;16.13;75.64;101625.41;3565352;40;20254;-80
2021/08/10 06:59:38;;;;;;;4.37;3.00;;;;;;;15.72;76.91;101619.84;3565232;40;20655;-81
2021/08/10 07:02:04;;;;;;;4.40;3.50;;;;;;;15.92;76.72;101628.66;3565343;40;20289;-80
2021/08/10 07:04:30;;;;;;;4.40;2.97;;;;;;;15.71;77.87;101618.06;3565438;40;20219;-80
2021/08/10 07:06:56;;;;;;;5.87;3.47;;;;;;;16.14;76.54;101616.81;3565425;40;20265;-81
2021/08/10 07:09:22;;;;;;;6.13;3.70;;;;;;;16.26;76.16;101616.94;3566475;40;20317;-80
2021/08/10 07:11:48;;;;;;;4.47;3.37;;;;;;;15.96;77.13;101627.84;3561521;40;20246;-80
2021/08/10 07:14:13;;;;;;;5.77;3.83;;;;;;;16.24;76.57;101640.16;3582181;40;20223;-81
2021/08/10 07:16:40;;;;;;;5.03;3.03;;;;;;;16.11;76.84;101624.53;3575322;40;20237;-81
2021/08/10 07:19:05;;;;;;;4.87;3.60;;;;;;;16.00;77.79;101634.78;3575407;40;20218;-81
2021/08/10 07:21:31;;;;;;;7.60;3.87;;;;;;;16.30;77.32;101629.03;3575766;40;20292;-80
2021/08/10 07:23:56;;;;;;;7.13;3.70;;;;;;;16.10;77.48;101633.13;3575403;40;20230;-80
2021/08/10 07:26:21;;;;;;;4.20;3.30;;;;;;;15.97;77.58;101639.06;3573459;40;20218;-80
2021/08/10 07:28:47;;;;;;;6.73;3.83;;;;;;;16.14;77.23;101632.31;3574311;40;20249;-78
2021/08/10 07:31:12;;;;;;;5.00;3.57;;;;;;;16.34;77.33;101635.97;3575162;40;20261;-80
2021/08/10 07:33:37;;;;;;;4.47;3.43;;;;;;;16.31;77.48;101634.19;3575142;40;20270;-80
2021/08/10 07:36:03;;;;;;;4.00;3.23;;;;;;;16.63;76.77;101631.91;3567956;40;20223;-80
2021/08/10 07:38:28;;;;;;;3.80;2.57;;;;;;;16.43;77.11;101639.50;3565825;40;20223;-80
2021/08/10 07:40:53;;;;;;;4.97;3.77;;;;;;;16.72;76.30;101632.81;3563341;40;20243;-81
2021/08/10 07:43:19;;;;;;;5.50;3.43;;;;;;;16.90;76.46;101635.53;3564358;40;20223;-80
2021/08/10 07:45:44;;;;;;;5.70;3.67;;;;;;;16.77;77.44;101641.47;3569777;40;20226;-81
2021/08/10 07:48:09;;;;;;;4.80;3.50;;;;;;;16.74;76.65;101641.47;3574870;40;20285;-80
2021/08/10 07:50:35;;;;;;;5.00;3.43;;;;;;;16.83;76.99;101633.78;3574602;40;20275;-81
2021/08/10 07:53:00;;;;;;;5.20;3.27;;;;;;;16.99;76.17;101633.00;3573770;40;20292;-80
2021/08/10 07:55:25;;;;;;;5.57;3.70;;;;;;;16.91;77.07;101639.00;3574919;40;20237;-81
2021/08/10 07:57:51;;;;;;;8.67;3.73;;;;;;;17.38;75.00;101628.06;3582448;40;20526;-80
2021/08/10 08:00:16;;;;;;;4.73;3.90;;;;;;;17.34;75.22;101635.78;3574431;40;20249;-81
2021/08/10 08:02:41;;;;;;;4.90;3.80;;;;;;;17.60;75.13;101650.59;3574599;40;20239;-81
2021/08/10 08:05:07;;;;;;;4.07;3.67;;;;;;;17.67;74.25;101648.91;3574910;40;20230;-80
2021/08/10 08:07:33;;;;;;;6.63;3.97;;;;;;;17.65;74.62;101655.81;3575271;40;20602;-81
2021/08/10 08:09:59;;;;;;;6.40;3.77;;;;;;;17.61;74.72;101660.13;3575103;40;20262;-81
2021/08/10 08:12:24;;;;;;;5.40;4.20;;;;;;;17.67;74.20;101662.75;3569806;40;20246;-81
2021/08/10 08:14:49;;;;;;;5.77;3.73;;;;;;;17.64;73.97;101657.53;3576351;40;20230;-80
2021/08/10 08:17:14;;;;;;;5.57;3.83;;;;;;;17.44;74.91;101651.41;3575382;40;20231;-80
2021/08/10 08:19:40;;;;;;;5.33;3.83;;;;;;;17.25;76.17;101657.34;3588872;40;20324;-81
2021/08/10 08:22:05;;;;;;;6.27;4.10;;;;;;;17.35;75.80;101650.47;3569687;40;20651;-80
2021/08/10 08:24:31;;;;;;;7.47;4.17;;;;;;;17.24;75.73;101637.50;3574613;40;20286;-80
2021/08/10 08:26:56;;;;;;;4.57;3.33;;;;;;;17.12;77.05;101627.06;3566309;40;20247;-80
2021/08/10 08:29:21;;;;;;;7.53;4.20;;;;;;;17.09;77.48;101634.78;3575778;40;20231;-80
2021/08/10 08:31:47;;;;;;;5.17;3.97;;;;;;;17.14;77.92;101647.78;3574588;40;20234;-80
2021/08/10 08:34:12;;;;;;;5.03;3.83;;;;;;;17.50;76.49;101642.81;3568653;40;20259;-80
2021/08/10 08:36:37;;;;;;;7.90;4.43;;;;;;;17.50;75.97;101635.06;3570298;40;20617;-80
2021/08/10 08:39:03;;;;;;;5.33;3.70;;;;;;;17.55;75.96;101639.38;3575285;40;20239;-81
2021/08/10 08:41:28;;;;;;;5.77;3.70;;;;;;;17.35;76.53;101632.34;3581492;40;20276;-80
2021/08/10 08:43:53;;;;;;;6.50;3.77;;;;;;;17.59;76.37;101645.44;3574599;40;20222;-80
2021/08/10 08:46:21;;;;;;;7.97;4.20;;;;;;;17.68;75.26;101632.53;3574226;40;20223;-81
2021/08/10 08:48:47;;;;;;;5.47;3.73;;;;;;;17.68;75.88;101648.06;3572864;40;20210;-80
2021/08/10 08:51:16;;;;;;;5.73;4.07;;;;;;;17.69;76.04;101647.19;3574278;40;20308;-80
2021/08/10 08:53:49;;;;;;;6.07;4.70;;;;;;;17.62;75.74;101642.84;3574077;40;20239;-80
2021/08/10 08:56:18;;;;;;;6.60;4.73;;;;;;;17.71;75.98;101632.50;3573485;40;20242;-81
2021/08/10 08:58:43;;;;;;;7.93;5.10;;;;;;;17.73;75.21;101625.63;3574388;40;20233;-80
2021/08/10 09:01:11;;;;;;;6.33;4.30;;;;;;;17.72;75.99;101635.13;3573595;40;20525;-81
2021/08/10 09:03:37;;;;;;;6.50;4.33;;;;;;;17.55;75.28;101628.16;3573698;40;20285;-79
2021/08/10 09:06:02;;;;;;;6.20;3.50;;;;;;;17.61;76.08;101635.94;3575231;40;20231;-81
2021/08/10 09:08:33;;;;;;;5.80;4.03;;;;;;;17.85;74.09;101617.88;3591077;40;20234;-79
2021/08/10 09:11:02;;;;;;;7.30;4.73;;;;;;;17.86;75.22;101622.19;3575737;40;20262;-80
2021/08/10 09:13:27;;;;;;;6.87;4.30;;;;;;;18.14;74.29;101618.81;3565022;40;20243;-80
2021/08/10 09:15:53;;;;;;;4.93;3.87;;;;;;;18.03;73.73;101610.13;3575917;40;20312;-80
2021/08/10 09:18:20;;;;;;;7.20;4.40;;;;;;;18.20;74.46;101609.28;3576193;40;20318;-81
2021/08/10 09:21:15;;;;;;;7.77;4.17;;;;;;;18.49;74.30;101607.59;3575009;40;20264;-81
2021/08/10 09:23:44;;;;;;;6.30;4.53;;;;;;;18.81;73.06;101605.84;3574884;40;20306;-81
2021/08/10 09:26:10;;;;;;;5.63;4.17;;;;;;;19.01;72.09;101601.44;3575535;40;20238;-81
2021/08/10 09:28:37;;;;;;;5.50;3.80;;;;;;;19.21;72.07;101599.66;3575993;40;20607;-80
2021/08/10 09:31:33;;;;;;;5.63;3.80;;;;;;;19.58;71.68;101596.03;3576709;40;20242;-81
2021/08/10 09:34:07;;;;;;;7.97;4.27;;;;;;;19.79;69.55;101588.13;3577728;40;20234;-81
2021/08/10 09:36:35;;;;;;;5.20;3.60;;;;;;;20.11;67.86;101577.53;3575537;40;20246;-81
2021/08/10 09:39:01;;;;;;;4.67;3.60;;;;;;;20.19;67.74;101573.16;3575759;40;20234;-82
2021/08/10 09:41:27;;;;;;;7.33;3.50;;;;;;;20.49;67.07;101570.28;3576806;40;20250;-80
2021/08/10 09:44:19;;;;;;;5.33;3.70;;;;;;;20.58;65.04;101564.97;3576216;40;20238;-80
2021/08/10 09:46:46;;;;;;;7.57;3.47;;;;;;;20.67;65.01;101562.28;3574631;40;20242;-81
2021/08/10 09:49:12;;;;;;;6.33;3.10;;;;;;;20.68;65.11;101559.66;3574713;40;20231;-80
2021/08/10 09:51:42;;;;;;;6.17;3.10;;;;;;;20.93;64.71;101562.91;3574858;40;20245;-80
2021/08/10 09:54:10;;;;;;;6.33;3.30;;;;;;;21.21;63.13;101557.38;3574173;40;20222;-81
2021/08/10 09:56:53;;;;;;;4.87;3.43;;;;;;;21.07;65.71;101548.84;3574547;40;20357;-80
2021/08/10 09:59:24;;;;;;;7.00;3.67;;;;;;;21.28;62.04;101545.97;3574165;40;20238;-80
2021/08/10 10:01:55;;;;;;;6.50;3.70;;;;;;;21.45;61.92;101543.13;3574029;40;20520;-80
2021/08/10 10:04:23;;;;;;;7.00;3.67;;;;;;;21.41;61.90;101547.53;3574508;40;20237;-80
2021/08/10 10:06:51;;;;;;;5.67;3.33;;;;;;;21.45;62.64;101550.94;3571285;40;20224;-81
2021/08/10 10:09:17;;;;;;;5.40;2.70;;;;;;;21.51;61.49;101556.94;3571095;40;20267;-80
2021/08/10 10:11:45;;;;;;;5.67;3.40;;;;;;;21.57;63.77;101550.78;3553228;40;20239;-80
2021/08/10 10:14:12;;;;;;;6.70;3.23;;;;;;;21.58;62.32;101557.72;3566392;40;20238;-80
2021/08/10 10:16:40;;;;;;;5.73;3.20;;;;;;;21.46;60.86;101557.91;3571080;40;20245;-79
2021/08/10 10:19:11;;;;;;;6.00;3.33;;;;;;;21.43;61.89;101542.31;3572640;40;20226;-80
2021/08/10 10:21:40;;;;;;;4.37;2.70;;;;;;;21.22;62.67;101548.66;3572410;40;20301;-80
2021/08/10 10:24:06;;;;;;;4.93;3.50;;;;;;;21.28;62.48;101547.72;3572592;40;20304;-80
2021/08/10 10:26:35;;;;;;;4.80;3.00;;;;;;;21.01;63.04;101550.66;3572237;40;20278;-80
2021/08/10 10:29:01;;;;;;;6.87;3.57;;;;;;;21.19;63.43;101547.84;3571578;40;20657;-79
2021/08/10 10:31:26;;;;;;;6.90;3.50;;;;;;;21.15;63.23;101546.16;3572064;40;20254;-79
2021/08/10 10:33:52;;;;;;;5.20;3.00;;;;;;;21.10;62.17;101543.59;3571964;40;20304;-80
2021/08/10 10:36:18;;;;;;;6.70;3.83;;;;;;;20.97;63.31;101535.94;3571933;40;20233;-79
2021/08/10 10:38:44;;;;;;;6.33;3.10;;;;;;;20.71;64.55;101544.03;3571986;40;20226;-79
2021/08/10 10:41:11;;;;;;;5.07;3.13;;;;;;;20.90;64.17;101536.88;3570922;40;20301;-79
2021/08/10 10:43:36;;;;;;;5.43;3.10;;;;;;;20.87;62.54;101536.91;3571399;40;20226;-79
2021/08/10 10:46:34;;;;;;;5.43;3.20;;;;;;;20.90;61.12;101523.88;3572595;40;20281;-79
2021/08/10 10:49:02;;;;;;;6.83;3.33;;;;;;;21.21;61.35;101531.31;3570959;40;20637;-79
2021/08/10 10:51:30;;;;;;;6.63;3.03;;;;;;;21.40;60.69;101531.91;3570445;40;20254;-79
2021/08/10 10:54:27;;;;;;;5.57;3.60;;;;;;;21.57;60.05;101522.09;3571952;40;20284;-79
2021/08/10 10:56:56;;;;;;;5.17;3.20;;;;;;;21.73;61.22;101519.28;3572173;40;20695;-79
2021/08/10 10:59:30;;;;;;;5.93;3.50;;;;;;;21.88;59.41;101526.84;3571781;40;20242;-79
2021/08/10 11:02:16;;;;;;;6.67;3.37;;;;;;;21.92;59.30;101520.72;3571067;40;20238;-79
2021/08/10 11:05:06;;;;;;;5.87;3.60;;;;;;;22.08;59.72;101523.94;3570321;40;20218;-79
2021/08/10 11:07:47;;;;;;;5.73;3.20;;;;;;;21.97;58.67;101511.06;3571678;40;20330;-79
2021/08/10 11:10:34;;;;;;;4.40;3.10;;;;;;;22.18;57.54;101509.84;3579011;40;20245;-79
2021/08/10 11:12:59;;;;;;;5.63;3.40;;;;;;;22.13;58.64;101512.53;3555922;40;20250;-80
2021/08/10 11:15:46;;;;;;;5.50;3.37;;;;;;;22.10;56.75;101519.53;3571545;40;20242;-78
2021/08/10 11:18:12;;;;;;;4.93;3.97;;;;;;;21.88;56.52;101526.03;3570333;40;20227;-80
2021/08/10 11:20:39;;;;;;;7.13;3.73;;;;;;;21.75;58.50;101525.31;3569995;40;20235;-79
2021/08/10 11:23:16;;;;;;;6.13;3.30;;;;;;;21.57;59.64;101522.09;3572458;40;20230;-79
2021/08/10 11:25:42;;;;;;;6.37;3.40;;;;;;;21.68;59.26;101510.63;3570595;40;20238;-80
2021/08/10 11:28:23;;;;;;;5.53;3.80;;;;;;;21.73;58.32;101510.59;3570365;40;20222;-79